createdAt,value
2024-02-06T00:00:14.864Z,95785.34
2024-02-06T00:02:41.426Z,95788.19
2024-02-06T00:05:09.849Z,95774.31
2024-02-06T00:07:38.580Z,95775.84
2024-02-06T00:10:05.202Z,95778.22
2024-02-06T00:12:31.812Z,95776.22
2024-02-06T00:14:58.349Z,95774.25
2024-02-06T00:17:24.914Z,95763.31
2024-02-06T00:19:51.660Z,95767.03
2024-02-06T00:22:18.395Z,95765.00
2024-02-06T00:24:44.973Z,95763.13
2024-02-06T00:27:11.535Z,95760.19
2024-02-06T00:29:38.075Z,95756.94
2024-02-06T00:32:04.652Z,95753.31
2024-02-06T00:34:31.401Z,95755.78
2024-02-06T00:36:58.120Z,95746.31
2024-02-06T00:39:24.693Z,95748.66
2024-02-06T00:41:51.262Z,95745.91
2024-02-06T00:44:17.808Z,95745.25
2024-02-06T00:46:44.337Z,95759.84
2024-02-06T00:49:10.997Z,95740.41
2024-02-06T00:51:37.828Z,95745.47
2024-02-06T00:54:04.462Z,95746.38
2024-02-06T00:56:31.021Z,95742.72
2024-02-06T00:58:57.924Z,95738.81
2024-02-06T01:01:24.592Z,95737.66
2024-02-06T01:03:51.283Z,95732.28
2024-02-06T01:06:17.873Z,95741.75
2024-02-06T01:08:44.462Z,95736.53
2024-02-06T01:11:11.045Z,95729.03
2024-02-06T01:13:37.744Z,95735.66
2024-02-06T01:16:04.506Z,95733.22
2024-02-06T01:18:31.214Z,95732.44
2024-02-06T01:20:57.841Z,95740.91
2024-02-06T01:23:24.550Z,95739.75
2024-02-06T01:25:51.090Z,95732.38
2024-02-06T01:28:17.699Z,95737.59
2024-02-06T01:30:44.314Z,95725.34
2024-02-06T01:33:10.975Z,95728.47
2024-02-06T01:35:37.629Z,95720.41
2024-02-06T01:38:04.170Z,95717.38
2024-02-06T01:40:30.768Z,95723.72
2024-02-06T01:42:57.386Z,95716.97
2024-02-06T01:45:23.941Z,95711.28
2024-02-06T01:47:50.505Z,95715.94
2024-02-06T01:50:17.207Z,95716.63
2024-02-06T01:52:43.834Z,95710.44
2024-02-06T01:55:10.402Z,95718.22
2024-02-06T01:57:36.965Z,95723.44
2024-02-06T02:00:03.529Z,95729.41
2024-02-06T02:02:30.113Z,95714.97
2024-02-06T02:04:56.705Z,95715.63
2024-02-06T02:07:23.449Z,95709.94
2024-02-06T02:09:50.100Z,95713.66
2024-02-06T02:12:16.654Z,95709.22
2024-02-06T02:14:43.221Z,95712.13
2024-02-06T02:17:09.761Z,95697.16
2024-02-06T02:19:36.415Z,95694.31
2024-02-06T02:22:03.150Z,95695.81
2024-02-06T02:24:29.772Z,95697.44
2024-02-06T02:26:56.340Z,95692.41
2024-02-06T02:29:22.902Z,95687.38
2024-02-06T02:31:49.462Z,95691.44
2024-02-06T02:34:16.204Z,95690.22
2024-02-06T02:36:42.901Z,95684.91
2024-02-06T02:39:09.455Z,95691.06
2024-02-06T02:41:35.998Z,95684.63
2024-02-06T02:44:02.538Z,95689.22
2024-02-06T02:46:29.158Z,95685.00
2024-02-06T02:48:55.838Z,95679.59
2024-02-06T02:51:22.432Z,95666.38
2024-02-06T02:53:49.066Z,95658.41
2024-02-06T02:56:15.783Z,95656.53
2024-02-06T02:58:42.491Z,95658.09
2024-02-06T03:01:09.139Z,95654.00
2024-02-06T03:03:35.778Z,95650.41
2024-02-06T03:06:02.420Z,95647.97
2024-02-06T03:08:28.978Z,95646.75
2024-02-06T03:10:55.535Z,95644.47
2024-02-06T03:13:22.097Z,95645.44
2024-02-06T03:15:48.666Z,95641.06
2024-02-06T03:18:15.306Z,95635.47
2024-02-06T03:20:41.914Z,95623.88
2024-02-06T03:23:08.493Z,95624.56
2024-02-06T03:25:35.063Z,95626.38
2024-02-06T03:28:01.643Z,95621.22
2024-02-06T03:30:28.216Z,95615.69
2024-02-06T03:32:54.798Z,95628.44
2024-02-06T03:35:21.527Z,95631.03
2024-02-06T03:37:48.152Z,95625.41
2024-02-06T03:40:14.728Z,95619.97
2024-02-06T03:42:41.333Z,95620.03
2024-02-06T03:45:07.912Z,95621.78
2024-02-06T03:47:34.491Z,95621.78
2024-02-06T03:50:01.187Z,95617.50
2024-02-06T03:52:27.777Z,95620.06
2024-02-06T03:54:54.403Z,95610.06
2024-02-06T03:57:21.770Z,95607.53
2024-02-06T03:59:48.458Z,95612.31
2024-02-06T04:02:15.278Z,95604.78
2024-02-06T04:04:42.082Z,95607.81
2024-02-06T04:07:08.950Z,95603.50
2024-02-06T04:09:35.561Z,95605.88
2024-02-06T04:12:02.168Z,95606.28
2024-02-06T04:14:28.773Z,95608.28
2024-02-06T04:16:55.318Z,95602.69
2024-02-06T04:19:22.001Z,95604.47
2024-02-06T04:21:48.602Z,95602.69
2024-02-06T04:24:15.154Z,95593.03
2024-02-06T04:26:41.704Z,95599.44
2024-02-06T04:29:08.249Z,95598.94
2024-02-06T04:31:34.976Z,95594.97
2024-02-06T04:34:01.749Z,95600.59
2024-02-06T04:36:28.431Z,95599.50
2024-02-06T04:38:54.999Z,95596.44
2024-02-06T04:41:21.553Z,95602.53
2024-02-06T04:43:48.087Z,95595.31
2024-02-06T04:46:14.718Z,95591.63
2024-02-06T04:48:41.311Z,95592.75
2024-02-06T04:51:07.902Z,95590.91
2024-02-06T04:53:35.331Z,95585.34
2024-02-06T04:56:01.885Z,95584.59
2024-02-06T04:58:28.566Z,95577.34
2024-02-06T05:00:55.233Z,95579.91
2024-02-06T05:03:21.832Z,95587.44
2024-02-06T05:05:48.433Z,95582.00
2024-02-06T05:08:15.100Z,95580.47
2024-02-06T05:10:41.777Z,95584.59
2024-02-06T05:13:08.558Z,95574.34
2024-02-06T05:15:35.236Z,95578.63
2024-02-06T05:18:01.989Z,95579.56
2024-02-06T05:20:28.678Z,95580.63
2024-02-06T05:22:55.269Z,95576.34
2024-02-06T05:25:24.539Z,95572.84
2024-02-06T05:27:51.681Z,95574.72
2024-02-06T05:30:18.238Z,95572.00
2024-02-06T05:32:44.811Z,95566.47
2024-02-06T05:35:11.526Z,95570.75
2024-02-06T05:37:38.385Z,95566.19
2024-02-06T05:40:05.079Z,95568.16
2024-02-06T05:42:31.649Z,95572.16
2024-02-06T05:44:58.193Z,95568.25
2024-02-06T05:47:24.861Z,95568.69
2024-02-06T05:49:51.661Z,95569.81
2024-02-06T05:52:18.341Z,95575.53
2024-02-06T05:54:44.924Z,95571.34
2024-02-06T05:57:11.480Z,95575.84
2024-02-06T05:59:38.046Z,95582.06
2024-02-06T06:02:04.889Z,95580.03
2024-02-06T06:04:31.833Z,95577.13
2024-02-06T06:06:58.687Z,95584.38
2024-02-06T06:09:25.340Z,95580.03
2024-02-06T06:11:51.923Z,95578.44
2024-02-06T06:14:18.484Z,95574.63
2024-02-06T06:16:45.071Z,95563.22
2024-02-06T06:19:11.793Z,95566.00
2024-02-06T06:21:40.675Z,95570.47
2024-02-06T06:24:08.078Z,95561.69
2024-02-06T06:26:34.647Z,95555.34
2024-02-06T06:29:01.205Z,95556.28
2024-02-06T06:31:27.790Z,95563.00
2024-02-06T06:33:54.529Z,95561.59
2024-02-06T06:36:21.103Z,95570.81
2024-02-06T06:38:47.661Z,95559.31
2024-02-06T06:41:14.224Z,95564.25
2024-02-06T06:43:40.911Z,95561.59
2024-02-06T06:46:07.529Z,95570.88
2024-02-06T06:48:34.273Z,95565.69
2024-02-06T06:51:00.925Z,95571.22
2024-02-06T06:53:27.470Z,95566.63
2024-02-06T06:55:54.032Z,95558.22
2024-02-06T06:58:20.677Z,95571.19
2024-02-06T07:00:47.270Z,95572.03
2024-02-06T07:03:13.903Z,95579.06
2024-02-06T07:05:40.575Z,95581.44
2024-02-06T07:08:07.201Z,95573.97
2024-02-06T07:10:33.771Z,95570.69
2024-02-06T07:13:00.419Z,95583.59
2024-02-06T07:15:27.022Z,95581.78
2024-02-06T07:17:53.625Z,95577.84
2024-02-06T07:20:20.387Z,95579.53
2024-02-06T07:22:47.198Z,95577.22
2024-02-06T07:25:13.866Z,95572.34
2024-02-06T07:27:40.484Z,95575.31
2024-02-06T07:30:07.056Z,95583.78
2024-02-06T07:32:33.646Z,95578.13
2024-02-06T07:35:00.325Z,95584.25
2024-02-06T07:37:27.170Z,95579.66
2024-02-06T07:39:53.836Z,95581.66
2024-02-06T07:42:20.379Z,95579.78
2024-02-06T07:44:46.942Z,95583.75
2024-02-06T07:47:13.838Z,95578.81
2024-02-06T07:49:40.504Z,95576.34
2024-02-06T07:52:07.207Z,95584.75
2024-02-06T07:54:33.777Z,95578.53
2024-02-06T07:57:00.327Z,95589.69
2024-02-06T07:59:26.911Z,95584.31
2024-02-06T08:01:53.567Z,95577.59
2024-02-06T08:04:20.205Z,95573.25
2024-02-06T08:06:47.005Z,95578.69
2024-02-06T08:09:13.663Z,95581.72
2024-02-06T08:11:40.292Z,95588.88
2024-02-06T08:14:06.838Z,95587.84
2024-02-06T08:16:33.506Z,95584.53
2024-02-06T08:19:00.270Z,95591.09
2024-02-06T08:21:26.921Z,95592.47
2024-02-06T08:23:53.467Z,95594.28
2024-02-06T08:26:20.133Z,95603.66
2024-02-06T08:28:46.788Z,95604.47
2024-02-06T08:31:13.492Z,95615.66
2024-02-06T08:33:40.080Z,95609.00
2024-02-06T08:36:06.794Z,95598.00
2024-02-06T08:38:33.533Z,95604.31
2024-02-06T08:41:00.264Z,95602.28
2024-02-06T08:43:28.692Z,95603.28
2024-02-06T08:45:57.250Z,95602.94
2024-02-06T08:48:24.094Z,95600.19
2024-02-06T08:50:51.276Z,95607.03
2024-02-06T08:53:17.902Z,95601.16
2024-02-06T08:55:44.547Z,95598.41
2024-02-06T08:58:11.227Z,95601.94
2024-02-06T09:00:37.828Z,95600.34
2024-02-06T09:03:04.416Z,95609.16
2024-02-06T09:05:31.233Z,95610.16
2024-02-06T09:07:57.963Z,95600.25
2024-02-06T09:10:25.309Z,95604.50
2024-02-06T09:12:52.027Z,95601.38
2024-02-06T09:15:18.609Z,95596.69
2024-02-06T09:17:45.250Z,95605.56
2024-02-06T09:20:11.892Z,95587.91
2024-02-06T09:22:38.685Z,95598.94
2024-02-06T09:25:05.407Z,95594.25
2024-02-06T09:27:31.987Z,95600.31
2024-02-06T09:29:58.557Z,95604.03
2024-02-06T09:32:25.127Z,95609.75
2024-02-06T09:34:51.804Z,95602.03
2024-02-06T09:37:18.422Z,95608.41
2024-02-06T09:39:45.005Z,95622.09
2024-02-06T09:42:11.545Z,95621.34
2024-02-06T09:44:38.096Z,95615.16
2024-02-06T09:47:05.197Z,95611.69
2024-02-06T09:49:32.001Z,95612.84
2024-02-06T09:51:58.695Z,95603.38
2024-02-06T09:54:25.324Z,95611.06
2024-02-06T09:56:51.887Z,95612.88
2024-02-06T09:59:18.438Z,95618.31
2024-02-06T10:01:45.072Z,95619.28
2024-02-06T10:04:11.888Z,95614.44
2024-02-06T10:06:38.738Z,95623.00
2024-02-06T10:09:05.477Z,95623.97
2024-02-06T10:11:32.082Z,95621.50
2024-02-06T10:13:58.652Z,95621.91
2024-02-06T10:16:25.314Z,95624.34
2024-02-06T10:18:52.025Z,95631.97
2024-02-06T10:21:18.657Z,95628.06
2024-02-06T10:23:45.215Z,95624.78
2024-02-06T10:26:11.771Z,95629.78
2024-02-06T10:28:38.387Z,95635.22
2024-02-06T10:31:05.054Z,95630.78
2024-02-06T10:33:31.876Z,95636.28
2024-02-06T10:35:58.598Z,95636.44
2024-02-06T10:38:25.217Z,95628.03
2024-02-06T10:40:52.040Z,95631.53
2024-02-06T10:45:48.360Z,95626.66
2024-02-06T10:48:14.980Z,95629.94
2024-02-06T10:50:42.271Z,95631.19
2024-02-06T10:53:09.467Z,95617.56
2024-02-06T10:55:36.154Z,95618.13
2024-02-06T10:58:02.816Z,95612.25
2024-02-06T11:00:29.449Z,95613.09
2024-02-06T11:02:56.026Z,95609.13
2024-02-06T11:05:22.776Z,95596.63
2024-02-06T11:07:49.398Z,95607.88
2024-02-06T11:10:16.035Z,95602.44
2024-02-06T11:12:42.622Z,95590.31
2024-02-06T11:15:09.200Z,95594.72
2024-02-06T11:17:35.800Z,95589.97
2024-02-06T11:20:02.385Z,95595.50
2024-02-06T11:22:28.981Z,95586.91
2024-02-06T11:24:55.581Z,95581.78
2024-02-06T11:27:22.160Z,95575.91
2024-02-06T11:29:48.714Z,95574.06
2024-02-06T11:32:15.273Z,95571.91
2024-02-06T11:34:41.979Z,95562.81
2024-02-06T11:37:08.704Z,95558.00
2024-02-06T11:39:35.304Z,95554.94
2024-02-06T11:42:01.903Z,95555.09
2024-02-06T11:44:28.467Z,95555.53
2024-02-06T11:46:55.045Z,95554.50
2024-02-06T11:49:21.680Z,95550.50
2024-02-06T11:51:49.042Z,95559.22
2024-02-06T11:54:16.055Z,95552.91
2024-02-06T11:56:42.721Z,95552.28
2024-02-06T11:59:09.654Z,95547.25
2024-02-06T12:01:37.628Z,95542.38
2024-02-06T12:04:05.717Z,95543.97
2024-02-06T12:06:32.382Z,95533.50
2024-02-06T12:08:59.025Z,95531.25
2024-02-06T12:11:25.704Z,95518.31
2024-02-06T12:13:52.800Z,95523.38
2024-02-06T12:16:19.953Z,95515.72
2024-02-06T12:18:47.294Z,95513.53
2024-02-06T12:21:14.284Z,95503.94
2024-02-06T12:23:40.879Z,95508.47
2024-02-06T12:26:07.455Z,95500.31
2024-02-06T12:28:34.095Z,95498.50
2024-02-06T12:31:00.767Z,95493.53
2024-02-06T12:33:27.469Z,95492.97
2024-02-06T12:35:54.122Z,95494.44
2024-02-06T12:38:20.710Z,95489.59
2024-02-06T12:40:47.347Z,95485.38
2024-02-06T12:43:15.151Z,95475.88
2024-02-06T12:45:41.909Z,95470.81
2024-02-06T12:48:08.556Z,95467.75
2024-02-06T12:50:35.460Z,95461.66
2024-02-06T12:53:02.127Z,95458.88
2024-02-06T12:55:29.870Z,95449.47
2024-02-06T12:57:57.516Z,95443.41
2024-02-06T13:00:24.124Z,95447.81
2024-02-06T13:02:50.747Z,95437.34
2024-02-06T13:05:17.886Z,95442.09
2024-02-06T13:07:44.676Z,95439.38
2024-02-06T13:10:11.563Z,95434.25
2024-02-06T13:12:38.259Z,95433.06
2024-02-06T13:15:04.894Z,95432.91
2024-02-06T13:17:31.706Z,95426.72
2024-02-06T13:19:58.438Z,95422.75
2024-02-06T13:22:25.257Z,95420.44
2024-02-06T13:24:51.899Z,95418.00
2024-02-06T13:27:18.580Z,95420.59
2024-02-06T13:29:45.144Z,95414.56
2024-02-06T13:32:11.792Z,95410.66
2024-02-06T13:34:38.567Z,95413.34
2024-02-06T13:37:05.206Z,95405.91
2024-02-06T13:39:32.056Z,95407.34
2024-02-06T13:41:58.637Z,95398.25
2024-02-06T13:44:25.192Z,95394.50
2024-02-06T13:46:51.784Z,95392.19
2024-02-06T13:49:18.483Z,95389.41
2024-02-06T13:51:45.094Z,95401.03
2024-02-06T13:54:11.680Z,95387.16
2024-02-06T13:56:39.115Z,95385.50
2024-02-06T13:59:05.819Z,95374.06
2024-02-06T14:01:32.402Z,95373.06
2024-02-06T14:03:59.127Z,95370.47
2024-02-06T14:06:25.848Z,95379.84
2024-02-06T14:08:52.418Z,95373.59
2024-02-06T14:11:18.998Z,95376.50
2024-02-06T14:13:45.665Z,95375.00
2024-02-06T14:16:12.284Z,95368.06
2024-02-06T14:18:38.880Z,95369.81
2024-02-06T14:21:05.442Z,95368.53
2024-02-06T14:23:31.997Z,95362.06
2024-02-06T14:25:58.616Z,95364.47
2024-02-06T14:28:25.320Z,95366.09
2024-02-06T14:30:51.916Z,95357.00
2024-02-06T14:33:21.600Z,95354.72
2024-02-06T14:35:48.307Z,95358.63
2024-02-06T14:38:14.945Z,95358.34
2024-02-06T14:40:41.543Z,95365.63
2024-02-06T14:43:08.193Z,95366.13
2024-02-06T14:45:34.761Z,95363.63
2024-02-06T14:48:01.371Z,95356.00
2024-02-06T14:50:28.077Z,95368.28
2024-02-06T14:52:54.737Z,95362.78
2024-02-06T14:55:21.400Z,95370.16
2024-02-06T14:57:48.015Z,95357.28
2024-02-06T15:00:14.571Z,95356.00
2024-02-06T15:02:41.139Z,95360.91
2024-02-06T15:05:08.005Z,95352.72
2024-02-06T15:07:34.773Z,95351.91
2024-02-06T15:10:01.629Z,95347.66
2024-02-06T15:12:28.272Z,95351.16
2024-02-06T15:14:54.863Z,95351.09
2024-02-06T15:17:21.482Z,95340.50
2024-02-06T15:19:48.325Z,95338.28
2024-02-06T15:22:15.102Z,95347.91
2024-02-06T15:24:41.804Z,95350.09
2024-02-06T15:27:08.369Z,95344.56
2024-02-06T15:29:34.992Z,95343.13
2024-02-06T15:32:02.010Z,95341.25
2024-02-06T15:34:28.659Z,95343.84
2024-02-06T15:36:55.282Z,95336.53
2024-02-06T15:39:21.845Z,95336.28
2024-02-06T15:41:48.398Z,95330.75
2024-02-06T15:44:16.143Z,95340.66
2024-02-06T15:46:42.994Z,95331.81
2024-02-06T15:49:09.661Z,95331.53
2024-02-06T15:51:36.345Z,95330.81
2024-02-06T15:54:02.941Z,95325.28
2024-02-06T15:56:29.523Z,95331.50
2024-02-06T15:58:56.172Z,95337.66
2024-02-06T16:01:22.866Z,95336.13
2024-02-06T16:03:49.530Z,95339.66
2024-02-06T16:06:16.203Z,95340.16
2024-02-06T16:08:42.800Z,95342.72
2024-02-06T16:11:09.348Z,95344.44
2024-02-06T16:13:35.942Z,95332.13
2024-02-06T16:16:02.609Z,95327.72
2024-02-06T16:18:29.313Z,95325.72
2024-02-06T16:20:55.956Z,95327.25
2024-02-06T16:23:22.550Z,95323.50
2024-02-06T16:25:49.165Z,95319.44
2024-02-06T16:28:15.790Z,95333.78
2024-02-06T16:30:42.398Z,95335.56
2024-02-06T16:33:09.031Z,95332.53
2024-02-06T16:35:35.804Z,95338.81
2024-02-06T16:38:02.411Z,95347.81
2024-02-06T16:40:29.026Z,95341.81
2024-02-06T16:42:55.625Z,95345.59
2024-02-06T16:45:22.196Z,95351.13
2024-02-06T16:47:48.816Z,95348.63
2024-02-06T16:50:15.551Z,95352.13
2024-02-06T16:52:42.336Z,95352.09
2024-02-06T16:55:08.966Z,95348.88
2024-02-06T16:57:36.938Z,95353.41
2024-02-06T17:00:03.493Z,95338.56
2024-02-06T17:02:30.139Z,95347.13
2024-02-06T17:04:56.866Z,95344.59
2024-02-06T17:07:23.549Z,95354.34
2024-02-06T17:09:50.242Z,95344.59
2024-02-06T17:12:16.805Z,95345.31
2024-02-06T17:14:43.501Z,95355.00
2024-02-06T17:17:10.057Z,95354.44
2024-02-06T17:19:36.767Z,95362.31
2024-02-06T17:22:03.434Z,95364.25
2024-02-06T17:24:30.003Z,95357.69
2024-02-06T17:26:56.568Z,95362.06
2024-02-06T17:29:23.117Z,95362.25
2024-02-06T17:31:49.683Z,95366.81
2024-02-06T17:34:16.517Z,95367.59
2024-02-06T17:36:43.226Z,95379.38
2024-02-06T17:39:09.804Z,95373.53
2024-02-06T17:41:36.370Z,95377.94
2024-02-06T17:44:02.930Z,95380.34
2024-02-06T17:46:29.788Z,95374.75
2024-02-06T17:48:56.399Z,95378.56
2024-02-06T17:51:23.001Z,95387.16
2024-02-06T17:53:49.652Z,95387.44
2024-02-06T17:56:16.311Z,95388.44
2024-02-06T17:58:45.880Z,95397.78
2024-02-06T18:01:14.699Z,95397.72
2024-02-06T18:03:41.395Z,95397.41
2024-02-06T18:06:08.000Z,95397.81
2024-02-06T18:08:34.855Z,95390.66
2024-02-06T18:11:01.606Z,95397.09
2024-02-06T18:13:28.239Z,95393.56
2024-02-06T18:15:54.820Z,95392.09
2024-02-06T18:18:21.403Z,95398.25
2024-02-06T18:20:47.963Z,95392.44
2024-02-06T18:23:14.545Z,95394.81
2024-02-06T18:25:41.147Z,95388.75
2024-02-06T18:28:07.809Z,95391.66
2024-02-06T18:30:34.475Z,95386.94
2024-02-06T18:33:01.069Z,95382.28
2024-02-06T18:35:27.697Z,95385.34
2024-02-06T18:37:54.348Z,95387.13
2024-02-06T18:40:20.965Z,95384.25
2024-02-06T18:42:47.527Z,95388.97
2024-02-06T18:45:14.183Z,95388.75
2024-02-06T18:47:40.749Z,95387.56
2024-02-06T18:50:07.438Z,95383.50
2024-02-06T18:52:34.142Z,95392.31
2024-02-06T18:55:00.740Z,95395.28
2024-02-06T18:57:27.321Z,95382.28
2024-02-06T18:59:53.979Z,95387.03
2024-02-06T19:02:20.544Z,95390.25
2024-02-06T19:04:47.249Z,95379.53
2024-02-06T19:07:14.108Z,95387.28
2024-02-06T19:09:40.785Z,95387.69
2024-02-06T19:12:07.407Z,95388.19
2024-02-06T19:14:33.959Z,95397.03
2024-02-06T19:17:00.572Z,95389.13
2024-02-06T19:19:27.360Z,95388.34
2024-02-06T19:21:53.959Z,95389.03
2024-02-06T19:24:20.518Z,95389.56
2024-02-06T19:26:47.152Z,95388.28
2024-02-06T19:29:13.817Z,95381.41
2024-02-06T19:31:40.514Z,95391.03
2024-02-06T19:34:07.208Z,95385.00
2024-02-06T19:36:33.878Z,95394.88
2024-02-06T19:39:00.463Z,95395.06
2024-02-06T19:41:27.023Z,95398.31
2024-02-06T19:43:53.747Z,95406.69
2024-02-06T19:46:20.489Z,95406.16
2024-02-06T19:48:47.103Z,95409.66
2024-02-06T19:51:13.940Z,95404.75
2024-02-06T19:53:40.592Z,95406.66
2024-02-06T19:56:07.150Z,95402.81
2024-02-06T19:58:33.705Z,95408.75
2024-02-06T20:01:00.302Z,95411.34
2024-02-06T20:03:26.882Z,95404.41
2024-02-06T20:05:53.533Z,95408.44
2024-02-06T20:08:20.294Z,95408.22
2024-02-06T20:10:47.030Z,95409.72
2024-02-06T20:13:13.637Z,95401.31
2024-02-06T20:15:42.670Z,95410.78
2024-02-06T20:18:10.433Z,95405.97
2024-02-06T20:20:37.005Z,95413.44
2024-02-06T20:23:03.592Z,95417.59
2024-02-06T20:25:30.202Z,95414.47
2024-02-06T20:27:56.772Z,95411.75
2024-02-06T20:30:23.402Z,95412.78
2024-02-06T20:32:50.008Z,95414.56
2024-02-06T20:35:16.652Z,95411.75
2024-02-06T20:37:43.351Z,95416.66
2024-02-06T20:40:10.139Z,95424.22
2024-02-06T20:42:36.769Z,95426.13
2024-02-06T20:45:03.304Z,95436.16
2024-02-06T20:47:29.852Z,95437.88
2024-02-06T20:49:56.546Z,95440.06
2024-02-06T20:52:23.241Z,95439.25
2024-02-06T20:54:49.819Z,95439.53
2024-02-06T20:57:16.372Z,95434.47
2024-02-06T20:59:42.949Z,95437.09
2024-02-06T21:02:09.652Z,95432.84
2024-02-06T21:04:36.355Z,95439.50
2024-02-06T21:07:03.027Z,95442.31
2024-02-06T21:09:29.610Z,95442.13
2024-02-06T21:11:56.182Z,95437.38
2024-02-06T21:14:22.752Z,95437.38
2024-02-06T21:16:49.552Z,95434.75
2024-02-06T21:19:16.385Z,95436.06
2024-02-06T21:21:43.184Z,95433.31
2024-02-06T21:24:09.764Z,95435.19
2024-02-06T21:26:37.373Z,95443.16
2024-02-06T21:29:04.024Z,95444.22
2024-02-06T21:31:30.689Z,95439.34
2024-02-06T21:33:57.469Z,95448.91
2024-02-06T21:36:24.143Z,95448.91
2024-02-06T21:38:50.716Z,95444.09
2024-02-06T21:41:17.291Z,95447.56
2024-02-06T21:43:43.939Z,95442.31
2024-02-06T21:46:10.744Z,95451.81
2024-02-06T21:48:37.504Z,95443.13
2024-02-06T21:51:04.285Z,95449.19
2024-02-06T21:53:30.846Z,95437.31
2024-02-06T21:56:04.961Z,95448.38
2024-02-06T21:58:39.119Z,95447.47
2024-02-06T22:01:05.792Z,95438.22
2024-02-06T22:03:32.454Z,95440.69
2024-02-06T22:05:59.225Z,95440.94
2024-02-06T22:08:25.956Z,95433.94
2024-02-06T22:10:52.661Z,95430.13
2024-02-06T22:13:19.285Z,95429.88
2024-02-06T22:15:45.854Z,95440.09
2024-02-06T22:18:12.505Z,95439.16
2024-02-06T22:20:39.148Z,95434.03
2024-02-06T22:23:05.755Z,95439.38
2024-02-06T22:25:32.403Z,95431.25
2024-02-06T22:27:58.993Z,95435.78
2024-02-06T22:30:25.758Z,95437.09
2024-02-06T22:32:52.431Z,95427.25
2024-02-06T22:35:19.118Z,95429.28
2024-02-06T22:37:45.756Z,95424.41
2024-02-06T22:40:12.348Z,95419.50
2024-02-06T22:42:38.915Z,95415.41
2024-02-06T22:45:05.532Z,95423.38
2024-02-06T22:47:32.095Z,95420.22
2024-02-06T22:49:58.753Z,95417.41
2024-02-06T22:52:25.396Z,95415.31
2024-02-06T22:54:51.968Z,95420.88
2024-02-06T22:57:18.514Z,95417.19
2024-02-06T22:59:45.217Z,95419.88
2024-02-06T23:02:11.779Z,95414.56
2024-02-06T23:04:38.392Z,95414.75
2024-02-06T23:07:05.084Z,95417.19
2024-02-06T23:09:31.688Z,95410.59
2024-02-06T23:11:58.241Z,95417.28
2024-02-06T23:14:24.806Z,95420.78
2024-02-06T23:16:51.532Z,95427.78
2024-02-06T23:19:18.267Z,95428.25
2024-02-06T23:21:44.894Z,95426.75
2024-02-06T23:24:11.494Z,95418.34
2024-02-06T23:26:38.083Z,95417.56
2024-02-06T23:29:04.653Z,95420.50
2024-02-06T23:31:31.318Z,95418.50
2024-02-06T23:33:57.904Z,95414.78
2024-02-06T23:36:24.457Z,95417.53
2024-02-06T23:39:03.878Z,95412.81
2024-02-06T23:41:37.582Z,95414.47
2024-02-06T23:44:04.144Z,95410.72
2024-02-06T23:46:30.695Z,95409.78
2024-02-06T23:48:57.368Z,95404.28
2024-02-06T23:51:24.039Z,95404.34
2024-02-06T23:53:50.604Z,95399.19
2024-02-06T23:56:17.188Z,95398.81
2024-02-06T23:58:43.832Z,95395.56
